Time;durP1;ratioP1;P1;durP2;ratioP2;P2;SDS_P1;SDS_P2;PMS_P1;PMS_P2;Temp;Humidity;BMP_temperature;BMP_pressure;BME280_temperature;BME280_humidity;BME280_pressure;Samples;Min_cycle;Max_cycle;Signal;HPM_P1;HPM_P2
2024/03/23 00:03:54;;;;;;;;;;;;;;;9.76;100.00;95145.47;10489698;28;2903;-69
2024/03/23 00:08:56;;;;;;;;;;;;;;;9.93;100.00;95140.47;10495979;28;2817;-78
2024/03/23 00:13:58;;;;;;;;;;;;;;;9.97;100.00;95132.66;10476427;28;2914;-73
2024/03/23 00:18:59;;;;;;;;;;;;;;;9.78;100.00;95123.72;10492828;28;2837;-76
2024/03/23 00:24:01;;;;;;;;;;;;;;;9.82;100.00;95119.41;10496424;28;2863;-67
2024/03/23 00:29:03;;;;;;;;;;;;;;;9.75;100.00;95109.78;10494938;28;2845;-68
2024/03/23 00:34:04;;;;;;;;;;;;;;;9.80;100.00;95100.06;10490376;28;2537;-67
2024/03/23 00:39:08;;;;;;;;;;;;;;;9.92;100.00;95103.16;10498493;28;2770;-68
2024/03/23 00:44:10;;;;;;;;;;;;;;;9.85;100.00;95094.66;10489063;28;2845;-71
2024/03/23 00:49:12;;;;;;;;;;;;;;;10.03;100.00;95091.22;10492802;28;2776;-69
2024/03/23 00:54:13;;;;;;;;;;;;;;;10.11;100.00;95071.78;10492086;28;2809;-70
2024/03/23 00:59:15;;;;;;;;;;;;;;;10.20;100.00;95072.75;10498634;28;2833;-69
2024/03/23 01:04:17;;;;;;;;;;;;;;;10.31;100.00;95064.59;10491976;28;2720;-68
2024/03/23 01:09:18;;;;;;;;;;;;;;;10.38;100.00;95062.38;10477761;28;2794;-69
2024/03/23 01:14:20;;;;;;;;;;;;;;;10.31;100.00;95046.63;10495989;28;2807;-68
2024/03/23 01:19:21;;;;;;;;;;;;;;;10.25;100.00;95037.81;10489382;28;2805;-67
2024/03/23 01:24:23;;;;;;;;;;;;;;;10.15;100.00;95040.59;10501689;28;2865;-68
2024/03/23 01:29:25;;;;;;;;;;;;;;;10.12;100.00;95041.19;10497102;28;2858;-66
2024/03/23 01:34:27;;;;;;;;;;;;;;;9.94;100.00;95031.22;10495610;28;2796;-69
2024/03/23 01:39:29;;;;;;;;;;;;;;;9.93;100.00;95029.63;10496186;28;2854;-69
2024/03/23 01:44:31;;;;;;;;;;;;;;;9.82;100.00;95028.94;10502007;28;2994;-68
2024/03/23 01:49:33;;;;;;;;;;;;;;;9.98;100.00;95016.09;10495173;28;2862;-68
2024/03/23 01:54:34;;;;;;;;;;;;;;;9.92;100.00;95018.06;10503731;28;2739;-69
2024/03/23 01:59:35;;;;;;;;;;;;;;;9.81;100.00;95010.44;10501131;28;2797;-69
2024/03/23 02:04:37;;;;;;;;;;;;;;;9.81;100.00;94999.69;10499155;28;2855;-68
2024/03/23 02:09:38;;;;;;;;;;;;;;;9.78;100.00;94997.56;10495058;28;2890;-67
2024/03/23 02:14:40;;;;;;;;;;;;;;;9.73;100.00;94990.38;10492245;28;2949;-69
2024/03/23 02:19:42;;;;;;;;;;;;;;;9.73;100.00;94988.50;10478768;28;2789;-71
2024/03/23 02:24:43;;;;;;;;;;;;;;;9.65;100.00;94983.75;10497405;28;2830;-69
2024/03/23 02:29:45;;;;;;;;;;;;;;;9.70;100.00;94974.84;10493489;28;2713;-68
2024/03/23 02:34:46;;;;;;;;;;;;;;;9.68;100.00;94969.78;10499353;28;2827;-67
2024/03/23 02:39:48;;;;;;;;;;;;;;;9.65;100.00;94966.88;10499711;28;2801;-68
2024/03/23 02:44:50;;;;;;;;;;;;;;;9.67;100.00;94959.31;10484721;28;2726;-69
2024/03/23 02:49:51;;;;;;;;;;;;;;;9.62;100.00;94944.09;10502481;28;2831;-69
2024/03/23 02:54:53;;;;;;;;;;;;;;;9.56;100.00;94945.25;10507804;28;2746;-69
2024/03/23 02:59:55;;;;;;;;;;;;;;;9.47;100.00;94936.22;10494342;28;2627;-67
2024/03/23 03:04:56;;;;;;;;;;;;;;;9.51;100.00;94939.94;10494186;28;2805;-68
2024/03/23 03:09:58;;;;;;;;;;;;;;;9.44;100.00;94936.81;10498402;28;2941;-68
2024/03/23 03:14:59;;;;;;;;;;;;;;;9.41;100.00;94929.31;10495848;28;2811;-69
2024/03/23 03:20:02;;;;;;;;;;;;;;;9.35;100.00;94928.59;10476534;28;2765;-68
2024/03/23 03:25:05;;;;;;;;;;;;;;;9.30;100.00;94919.81;10494870;28;2864;-69
2024/03/23 03:30:08;;;;;;;;;;;;;;;9.36;100.00;94921.34;10493473;28;2843;-68
2024/03/23 03:35:10;;;;;;;;;;;;;;;9.27;100.00;94921.16;10489888;28;2819;-69
2024/03/23 03:40:12;;;;;;;;;;;;;;;9.30;100.00;94911.75;10492130;28;2723;-70
2024/03/23 03:45:14;;;;;;;;;;;;;;;9.33;100.00;94903.13;10493257;28;2895;-68
2024/03/23 03:50:15;;;;;;;;;;;;;;;9.25;100.00;94903.78;10504371;28;2760;-70
2024/03/23 03:55:17;;;;;;;;;;;;;;;9.14;100.00;94895.84;10497789;28;2817;-71
2024/03/23 04:00:18;;;;;;;;;;;;;;;9.12;100.00;94892.66;10492392;28;2685;-69
2024/03/23 04:05:20;;;;;;;;;;;;;;;9.09;100.00;94879.78;10496763;28;2813;-70
2024/03/23 04:10:21;;;;;;;;;;;;;;;9.26;100.00;94876.66;10493187;28;2792;-70
2024/03/23 04:15:23;;;;;;;;;;;;;;;9.49;100.00;94858.94;10490832;28;2877;-68
2024/03/23 04:20:24;;;;;;;;;;;;;;;9.39;100.00;94862.53;10493908;28;2895;-69
2024/03/23 04:25:26;;;;;;;;;;;;;;;9.25;100.00;94847.47;10492143;28;2755;-69
2024/03/23 04:30:29;;;;;;;;;;;;;;;9.21;100.00;94837.28;10492358;28;2925;-68
2024/03/23 04:35:30;;;;;;;;;;;;;;;9.06;100.00;94834.81;10490550;28;2820;-69
2024/03/23 04:40:32;;;;;;;;;;;;;;;9.21;100.00;94825.78;10491670;28;2837;-68
2024/03/23 04:45:34;;;;;;;;;;;;;;;9.30;100.00;94813.34;10496283;28;2806;-67
2024/03/23 04:50:36;;;;;;;;;;;;;;;9.32;100.00;94811.16;10494021;28;2969;-67
2024/03/23 04:55:38;;;;;;;;;;;;;;;9.51;100.00;94803.13;10486236;28;2635;-69
2024/03/23 05:00:39;;;;;;;;;;;;;;;9.55;100.00;94792.63;10497918;28;2821;-66
2024/03/23 05:05:41;;;;;;;;;;;;;;;9.61;100.00;94784.19;10498965;28;2600;-69
2024/03/23 05:10:43;;;;;;;;;;;;;;;9.81;100.00;94769.66;10501354;28;2849;-68
2024/03/23 05:15:44;;;;;;;;;;;;;;;9.89;100.00;94776.25;10499425;28;2571;-69
2024/03/23 05:20:46;;;;;;;;;;;;;;;9.81;100.00;94766.97;10496641;28;2753;-67
2024/03/23 05:25:48;;;;;;;;;;;;;;;9.86;100.00;94771.44;10500733;28;2815;-69
2024/03/23 05:30:49;;;;;;;;;;;;;;;9.95;100.00;94759.75;10497683;28;2974;-68
2024/03/23 05:35:51;;;;;;;;;;;;;;;10.14;100.00;94773.13;10505589;28;2551;-69
2024/03/23 05:40:52;;;;;;;;;;;;;;;10.32;100.00;94762.66;10498642;28;2677;-68
2024/03/23 05:45:54;;;;;;;;;;;;;;;10.51;100.00;94760.69;10504025;28;2879;-69
2024/03/23 05:50:55;;;;;;;;;;;;;;;10.48;100.00;94750.53;10483720;28;2738;-69
2024/03/23 05:55:57;;;;;;;;;;;;;;;10.42;100.00;94749.81;10498204;28;2922;-71
2024/03/23 06:00:59;;;;;;;;;;;;;;;10.39;100.00;94741.59;10500265;28;2745;-70
2024/03/23 06:06:00;;;;;;;;;;;;;;;10.51;100.00;94729.25;10496495;28;2879;-73
2024/03/23 06:11:01;;;;;;;;;;;;;;;10.62;100.00;94723.66;10498241;28;2827;-69
2024/03/23 06:16:03;;;;;;;;;;;;;;;10.69;100.00;94719.50;10503049;28;2754;-68
2024/03/23 06:21:05;;;;;;;;;;;;;;;10.85;100.00;94698.47;10479807;28;2549;-68
2024/03/23 06:26:06;;;;;;;;;;;;;;;11.03;100.00;94692.16;10494922;28;2807;-68
2024/03/23 06:31:08;;;;;;;;;;;;;;;11.16;100.00;94689.75;10497126;28;2714;-69
2024/03/23 06:36:10;;;;;;;;;;;;;;;11.34;100.00;94667.28;10500330;28;2670;-68
2024/03/23 06:41:12;;;;;;;;;;;;;;;11.49;100.00;94649.97;10496622;28;2880;-68
2024/03/23 06:46:13;;;;;;;;;;;;;;;11.82;100.00;94635.16;10499502;28;2623;-70
2024/03/23 06:51:15;;;;;;;;;;;;;;;12.02;100.00;94622.25;10498149;28;2797;-68
2024/03/23 06:56:16;;;;;;;;;;;;;;;12.30;100.00;94623.66;10496957;28;2824;-69
2024/03/23 07:01:18;;;;;;;;;;;;;;;12.65;100.00;94618.31;10495122;28;2844;-69
2024/03/23 07:06:19;;;;;;;;;;;;;;;13.26;100.00;94619.22;10493891;28;2725;-69
2024/03/23 07:11:21;;;;;;;;;;;;;;;13.48;100.00;94613.63;10501884;28;2847;-68
2024/03/23 07:16:22;;;;;;;;;;;;;;;14.04;100.00;94619.84;10479966;28;2820;-67
2024/03/23 07:21:24;;;;;;;;;;;;;;;14.18;100.00;94621.56;10494789;28;2606;-68
2024/03/23 07:26:25;;;;;;;;;;;;;;;14.33;100.00;94623.72;10492455;28;2847;-68
2024/03/23 07:31:27;;;;;;;;;;;;;;;14.19;100.00;94623.16;10496944;28;2744;-69
2024/03/23 07:36:28;;;;;;;;;;;;;;;13.98;100.00;94650.88;10483257;28;2874;-69
2024/03/23 07:41:30;;;;;;;;;;;;;;;13.73;100.00;94676.00;10496085;28;2756;-69
2024/03/23 07:46:32;;;;;;;;;;;;;;;12.35;100.00;94723.22;10492453;28;2745;-67
2024/03/23 07:51:34;;;;;;;;;;;;;;;11.23;100.00;94744.72;10481221;28;2854;-69
2024/03/23 07:56:36;;;;;;;;;;;;;;;10.72;100.00;94761.91;10490282;28;2855;-67
2024/03/23 08:01:37;;;;;;;;;;;;;;;10.40;100.00;94772.72;10498979;28;2922;-69
2024/03/23 08:06:39;;;;;;;;;;;;;;;10.03;100.00;94787.81;10493349;28;2591;-68
2024/03/23 08:11:43;;;;;;;;;;;;;;;9.80;100.00;94820.94;10474777;28;2717;-69
2024/03/23 08:16:48;;;;;;;;;;;;;;;9.69;100.00;94825.66;10497521;28;2836;-69
2024/03/23 08:21:51;;;;;;;;;;;;;;;9.51;100.00;94843.34;10491400;28;2849;-68
2024/03/23 08:26:52;;;;;;;;;;;;;;;9.37;100.00;94882.72;10503217;28;2769;-71
2024/03/23 08:31:54;;;;;;;;;;;;;;;8.89;100.00;94930.94;10494728;28;2995;-70
2024/03/23 08:36:56;;;;;;;;;;;;;;;8.38;100.00;94936.75;10495368;28;2591;-70
2024/03/23 08:41:57;;;;;;;;;;;;;;;8.16;100.00;94939.03;10495075;28;2912;-69
2024/03/23 08:46:59;;;;;;;;;;;;;;;8.14;100.00;94941.97;10492367;28;2835;-70
2024/03/23 08:52:00;;;;;;;;;;;;;;;7.97;100.00;94947.72;10501792;28;2805;-69
2024/03/23 08:57:02;;;;;;;;;;;;;;;7.92;100.00;94971.84;10495429;28;2881;-74
2024/03/23 09:02:04;;;;;;;;;;;;;;;7.90;100.00;94974.00;10494509;28;2906;-71
2024/03/23 09:07:06;;;;;;;;;;;;;;;7.81;100.00;94999.72;10491693;28;3880;-68
2024/03/23 09:12:07;;;;;;;;;;;;;;;7.75;100.00;95009.63;10497379;28;2861;-69
2024/03/23 09:17:10;;;;;;;;;;;;;;;7.80;100.00;94995.44;10474981;28;2837;-70
2024/03/23 09:22:12;;;;;;;;;;;;;;;7.88;100.00;94997.53;10479308;28;2828;-71
2024/03/23 09:27:13;;;;;;;;;;;;;;;7.86;100.00;95005.84;10493709;28;2798;-71
2024/03/23 09:32:15;;;;;;;;;;;;;;;7.81;100.00;94997.03;10492314;28;2849;-70
2024/03/23 09:37:17;;;;;;;;;;;;;;;7.78;100.00;95019.00;10472370;28;2861;-70
2024/03/23 09:42:19;;;;;;;;;;;;;;;7.67;100.00;95022.78;10492786;28;2624;-70
2024/03/23 09:47:21;;;;;;;;;;;;;;;7.65;100.00;95031.09;10502980;28;2764;-71
2024/03/23 09:52:23;;;;;;;;;;;;;;;7.68;100.00;95035.06;10511044;28;2671;-69
2024/03/23 09:57:24;;;;;;;;;;;;;;;7.48;100.00;95047.44;10500656;28;2768;-70
2024/03/23 10:02:26;;;;;;;;;;;;;;;7.28;100.00;95047.47;10491290;28;2816;-70
2024/03/23 10:07:29;;;;;;;;;;;;;;;7.23;100.00;95066.19;10483385;28;2932;-70
2024/03/23 10:12:30;;;;;;;;;;;;;;;7.13;100.00;95060.88;10497390;28;2813;-71
2024/03/23 10:17:32;;;;;;;;;;;;;;;7.01;100.00;95064.63;10500246;28;2609;-69
2024/03/23 10:22:34;;;;;;;;;;;;;;;6.90;100.00;95068.38;10506322;28;2767;-69
2024/03/23 10:27:35;;;;;;;;;;;;;;;6.77;100.00;95069.69;10498431;28;2833;-69
2024/03/23 10:32:37;;;;;;;;;;;;;;;6.82;100.00;95086.81;10502401;28;2849;-71
2024/03/23 10:37:39;;;;;;;;;;;;;;;7.15;100.00;95074.78;10503476;28;2819;-69
2024/03/23 10:42:41;;;;;;;;;;;;;;;7.36;100.00;95076.34;10498009;28;2771;-69
2024/03/23 10:47:43;;;;;;;;;;;;;;;7.40;100.00;95088.09;10515499;28;2618;-70
2024/03/23 10:52:45;;;;;;;;;;;;;;;7.28;100.00;95103.63;10513479;28;2719;-69
2024/03/23 10:57:47;;;;;;;;;;;;;;;7.46;100.00;95119.13;10496114;28;2815;-69
2024/03/23 11:02:48;;;;;;;;;;;;;;;7.53;100.00;95118.84;10502381;28;2886;-72
2024/03/23 11:07:50;;;;;;;;;;;;;;;7.71;100.00;95120.16;10498502;28;2781;-69
2024/03/23 11:12:52;;;;;;;;;;;;;;;7.52;100.00;95135.97;10498743;28;2804;-68
2024/03/23 11:17:54;;;;;;;;;;;;;;;7.46;100.00;95137.84;10496604;28;2797;-68
2024/03/23 11:22:57;;;;;;;;;;;;;;;7.48;100.00;95149.06;10487605;28;2849;-71
2024/03/23 11:27:59;;;;;;;;;;;;;;;7.52;100.00;95133.28;10494862;28;2608;-70
2024/03/23 11:33:01;;;;;;;;;;;;;;;7.57;100.00;95104.66;10496001;28;2788;-68
2024/03/23 11:38:03;;;;;;;;;;;;;;;7.72;100.00;95122.53;10498272;28;2822;-69
2024/03/23 11:43:04;;;;;;;;;;;;;;;8.10;100.00;95139.03;10491603;28;2678;-69
2024/03/23 11:48:06;;;;;;;;;;;;;;;8.23;100.00;95116.22;10486391;28;2730;-70
2024/03/23 11:53:08;;;;;;;;;;;;;;;8.29;100.00;95112.47;10491774;28;2730;-70
2024/03/23 11:58:10;;;;;;;;;;;;;;;8.41;100.00;95096.91;10495553;28;2797;-70
2024/03/23 12:03:11;;;;;;;;;;;;;;;8.39;100.00;95085.63;10493333;28;2829;-69
2024/03/23 12:08:13;;;;;;;;;;;;;;;8.04;100.00;95108.81;10494434;28;2778;-69
2024/03/23 12:13:15;;;;;;;;;;;;;;;8.26;100.00;95107.63;10496019;28;2594;-72
2024/03/23 12:18:17;;;;;;;;;;;;;;;8.34;100.00;95097.16;10495933;28;2737;-69
2024/03/23 12:23:20;;;;;;;;;;;;;;;8.82;100.00;95097.44;10496765;28;2825;-69
2024/03/23 12:28:22;;;;;;;;;;;;;;;9.19;100.00;95096.09;10491879;28;2801;-69
2024/03/23 12:33:24;;;;;;;;;;;;;;;8.85;100.00;95088.84;10485945;28;2382;-72
2024/03/23 12:38:25;;;;;;;;;;;;;;;8.77;100.00;95075.22;10495985;28;2778;-73
2024/03/23 12:43:28;;;;;;;;;;;;;;;8.37;100.00;95090.47;10495465;28;2741;-77
2024/03/23 12:48:31;;;;;;;;;;;;;;;8.34;100.00;95080.31;10500253;28;2826;-72
2024/03/23 12:53:33;;;;;;;;;;;;;;;8.51;100.00;95078.06;10480905;28;2925;-73
2024/03/23 12:58:34;;;;;;;;;;;;;;;8.95;100.00;95079.91;10498728;28;2826;-74
2024/03/23 13:03:36;;;;;;;;;;;;;;;9.01;100.00;95083.38;10499824;28;2854;-76
2024/03/23 13:08:38;;;;;;;;;;;;;;;9.20;100.00;95085.06;10495824;28;2739;-68
2024/03/23 13:13:40;;;;;;;;;;;;;;;9.02;100.00;95088.44;10491180;28;2816;-70
2024/03/23 13:18:42;;;;;;;;;;;;;;;9.49;100.00;95068.19;10500757;28;2657;-67
2024/03/23 13:23:45;;;;;;;;;;;;;;;9.34;100.00;95045.00;10493239;28;2785;-69
2024/03/23 13:28:47;;;;;;;;;;;;;;;9.36;100.00;95026.75;10509298;28;2654;-68
2024/03/23 13:33:49;;;;;;;;;;;;;;;9.20;100.00;95039.50;10500963;28;2793;-70
2024/03/23 13:38:51;;;;;;;;;;;;;;;9.26;100.00;95052.84;10491115;28;2780;-69
2024/03/23 13:43:53;;;;;;;;;;;;;;;9.30;100.00;95064.63;10505546;28;2912;-66
2024/03/23 13:48:54;;;;;;;;;;;;;;;8.08;100.00;95077.75;10502666;28;2726;-68
2024/03/23 13:53:57;;;;;;;;;;;;;;;7.49;100.00;95091.03;10500480;28;2774;-69
2024/03/23 13:58:59;;;;;;;;;;;;;;;6.22;100.00;95124.56;10502726;28;2776;-69
2024/03/23 14:04:00;;;;;;;;;;;;;;;5.53;100.00;95158.59;10508324;28;2904;-69
2024/03/23 14:09:03;;;;;;;;;;;;;;;5.35;100.00;95143.84;10500153;28;2807;-71
2024/03/23 14:14:05;;;;;;;;;;;;;;;5.51;100.00;95126.06;10511193;28;2828;-69
2024/03/23 14:19:06;;;;;;;;;;;;;;;5.58;100.00;95126.66;10500304;28;2793;-69
2024/03/23 14:24:09;;;;;;;;;;;;;;;6.08;100.00;95117.31;10498776;28;2718;-68
2024/03/23 14:29:10;;;;;;;;;;;;;;;6.34;100.00;95128.91;10499710;28;2980;-68
2024/03/23 14:34:12;;;;;;;;;;;;;;;6.35;100.00;95122.47;10503483;28;2932;-69
2024/03/23 14:39:15;;;;;;;;;;;;;;;6.21;100.00;95124.84;10501522;28;2800;-70
2024/03/23 14:44:16;;;;;;;;;;;;;;;5.86;100.00;95128.94;10496112;28;2936;-68
2024/03/23 14:49:18;;;;;;;;;;;;;;;5.80;100.00;95134.53;10501279;28;2655;-69
2024/03/23 14:54:20;;;;;;;;;;;;;;;5.73;100.00;95141.94;10516632;27;2568;-69
2024/03/23 14:59:21;;;;;;;;;;;;;;;5.69;100.00;95162.97;10502324;28;2798;-70
2024/03/23 15:04:23;;;;;;;;;;;;;;;5.81;100.00;95160.94;10497268;28;2786;-69
2024/03/23 15:09:25;;;;;;;;;;;;;;;5.82;100.00;95186.53;10499010;28;2785;-70
2024/03/23 15:14:27;;;;;;;;;;;;;;;5.20;100.00;95181.00;10497333;28;2732;-68
2024/03/23 15:19:29;;;;;;;;;;;;;;;5.16;100.00;95172.75;10501525;28;2877;-71
2024/03/23 15:24:31;;;;;;;;;;;;;;;5.01;100.00;95153.94;10494484;28;2838;-70
2024/03/23 15:29:32;;;;;;;;;;;;;;;5.16;100.00;95132.78;10497662;28;2405;-69
2024/03/23 15:34:34;;;;;;;;;;;;;;;5.69;100.00;95146.97;10495922;28;2613;-69
2024/03/23 15:39:36;;;;;;;;;;;;;;;6.06;100.00;95111.47;10500414;28;2790;-69
2024/03/23 15:44:37;;;;;;;;;;;;;;;6.21;100.00;95122.19;10501266;28;2756;-69
2024/03/23 15:49:40;;;;;;;;;;;;;;;6.21;100.00;95122.19;10499165;28;2839;-67
2024/03/23 15:54:42;;;;;;;;;;;;;;;6.61;100.00;95126.03;10508060;28;2876;-69
2024/03/23 15:59:44;;;;;;;;;;;;;;;6.91;100.00;95142.09;10498345;28;2643;-68
2024/03/23 16:04:46;;;;;;;;;;;;;;;6.68;100.00;95134.56;10502564;28;2628;-69
2024/03/23 16:09:47;;;;;;;;;;;;;;;6.97;100.00;95121.53;10504281;28;2567;-68
2024/03/23 16:14:49;;;;;;;;;;;;;;;6.66;100.00;95116.16;10496045;28;2647;-68
2024/03/23 16:19:50;;;;;;;;;;;;;;;6.46;100.00;95100.91;10496815;28;2816;-68
2024/03/23 16:24:52;;;;;;;;;;;;;;;6.53;100.00;95105.97;10513864;28;2830;-69
2024/03/23 16:29:54;;;;;;;;;;;;;;;6.43;100.00;95112.13;10493160;28;2792;-69
2024/03/23 16:34:56;;;;;;;;;;;;;;;6.26;100.00;95116.88;10497084;28;2825;-68
2024/03/23 16:39:57;;;;;;;;;;;;;;;6.26;100.00;95132.88;10496685;28;2541;-70
2024/03/23 16:44:59;;;;;;;;;;;;;;;6.35;100.00;95114.47;10498480;28;2864;-68
2024/03/23 16:50:01;;;;;;;;;;;;;;;6.03;100.00;95122.63;10496547;28;2754;-69
2024/03/23 16:55:02;;;;;;;;;;;;;;;5.94;100.00;95136.47;10505423;28;2891;-69
2024/03/23 17:00:06;;;;;;;;;;;;;;;5.90;100.00;95127.34;10502919;28;2628;-69
2024/03/23 17:05:07;;;;;;;;;;;;;;;5.96;100.00;95125.53;10500098;28;2740;-71
2024/03/23 17:10:09;;;;;;;;;;;;;;;5.95;100.00;95138.09;10504580;28;2795;-69
2024/03/23 17:15:10;;;;;;;;;;;;;;;5.90;100.00;95147.88;10498994;28;2829;-69
2024/03/23 17:20:12;;;;;;;;;;;;;;;5.82;100.00;95143.84;10500539;28;2763;-69
2024/03/23 17:25:14;;;;;;;;;;;;;;;5.73;100.00;95156.09;10504985;28;2735;-69
2024/03/23 17:30:16;;;;;;;;;;;;;;;5.36;100.00;95162.25;10502328;28;2597;-68
2024/03/23 17:35:19;;;;;;;;;;;;;;;4.73;100.00;95193.13;10505432;28;2808;-69
2024/03/23 17:40:21;;;;;;;;;;;;;;;4.15;100.00;95193.78;10496890;28;2806;-69
2024/03/23 17:45:22;;;;;;;;;;;;;;;3.78;100.00;95195.16;10502828;28;2857;-69
2024/03/23 17:50:24;;;;;;;;;;;;;;;3.66;100.00;95217.56;10500273;28;2876;-70
2024/03/23 17:55:25;;;;;;;;;;;;;;;3.43;100.00;95211.38;10505182;28;2762;-72
2024/03/23 18:00:26;;;;;;;;;;;;;;;3.44;100.00;95190.94;10503424;28;2819;-68
2024/03/23 18:05:28;;;;;;;;;;;;;;;3.47;100.00;95217.03;10494745;28;2962;-69
2024/03/23 18:10:30;;;;;;;;;;;;;;;3.53;100.00;95232.81;10501935;28;2834;-69
2024/03/23 18:15:32;;;;;;;;;;;;;;;3.64;100.00;95241.75;10500064;28;2803;-69
2024/03/23 18:20:34;;;;;;;;;;;;;;;3.62;100.00;95243.00;10501672;28;2790;-69
2024/03/23 18:25:36;;;;;;;;;;;;;;;3.25;100.00;95248.81;10496333;28;2846;-68
2024/03/23 18:30:38;;;;;;;;;;;;;;;2.95;100.00;95259.72;10497099;28;2742;-70
2024/03/23 18:35:40;;;;;;;;;;;;;;;3.03;100.00;95269.94;10497440;28;2726;-69
2024/03/23 18:40:42;;;;;;;;;;;;;;;3.14;100.00;95269.09;10502823;28;2730;-70
2024/03/23 18:45:44;;;;;;;;;;;;;;;3.19;100.00;95284.31;10498041;28;2736;-68
2024/03/23 18:50:45;;;;;;;;;;;;;;;2.42;100.00;95277.56;10499402;28;2731;-70
2024/03/23 18:55:47;;;;;;;;;;;;;;;2.37;100.00;95258.09;10499554;28;2908;-71
2024/03/23 19:00:48;;;;;;;;;;;;;;;2.48;100.00;95238.66;10498392;28;2868;-69
2024/03/23 19:05:50;;;;;;;;;;;;;;;2.63;100.00;95240.81;10498727;28;2922;-70
2024/03/23 19:10:52;;;;;;;;;;;;;;;2.79;100.00;95249.84;10498718;28;2709;-68
2024/03/23 19:15:53;;;;;;;;;;;;;;;2.88;100.00;95243.13;10482392;28;2965;-69
2024/03/23 19:20:55;;;;;;;;;;;;;;;3.00;100.00;95245.75;10497101;28;2691;-71
2024/03/23 19:25:57;;;;;;;;;;;;;;;3.03;100.00;95245.25;10495898;28;2903;-68
2024/03/23 19:30:59;;;;;;;;;;;;;;;3.08;100.00;95242.69;10482652;28;2873;-72
2024/03/23 19:36:00;;;;;;;;;;;;;;;3.09;100.00;95250.41;10500376;28;2618;-77
2024/03/23 19:41:02;;;;;;;;;;;;;;;3.20;100.00;95224.84;10500095;28;2814;-74
2024/03/23 19:46:03;;;;;;;;;;;;;;;3.28;100.00;95226.28;10504213;28;2584;-75
2024/03/23 19:51:05;;;;;;;;;;;;;;;3.30;100.00;95217.00;10503514;28;2775;-75
2024/03/23 19:56:09;;;;;;;;;;;;;;;3.19;100.00;95215.25;10501650;28;2935;-70
2024/03/23 20:01:11;;;;;;;;;;;;;;;3.09;100.00;95207.91;10494498;28;2763;-71
2024/03/23 20:06:13;;;;;;;;;;;;;;;3.09;100.00;95209.78;10498965;28;2780;-72
2024/03/23 20:11:14;;;;;;;;;;;;;;;3.11;100.00;95221.75;10492486;28;2773;-70
2024/03/23 20:16:16;;;;;;;;;;;;;;;3.21;100.00;95206.00;10493790;28;2595;-71
2024/03/23 20:21:18;;;;;;;;;;;;;;;3.14;100.00;95208.00;10492028;28;2954;-69
2024/03/23 20:26:19;;;;;;;;;;;;;;;3.04;100.00;95209.69;10498420;28;2982;-71
2024/03/23 20:31:21;;;;;;;;;;;;;;;3.02;100.00;95211.78;10493330;28;2754;-70
2024/03/23 20:36:23;;;;;;;;;;;;;;;3.07;100.00;95199.41;10491514;28;2663;-70
2024/03/23 20:41:25;;;;;;;;;;;;;;;3.17;100.00;95199.53;10495395;28;2738;-70
2024/03/23 20:46:27;;;;;;;;;;;;;;;3.18;100.00;95201.19;10495541;28;2776;-70
2024/03/23 20:51:28;;;;;;;;;;;;;;;3.22;100.00;95196.97;10498342;28;2630;-69
2024/03/23 20:56:30;;;;;;;;;;;;;;;3.23;100.00;95203.88;10498797;28;2793;-70
2024/03/23 21:01:33;;;;;;;;;;;;;;;3.27;100.00;95195.47;10498720;28;2770;-72
2024/03/23 21:06:34;;;;;;;;;;;;;;;3.36;100.00;95194.00;10492712;28;2821;-70
2024/03/23 21:11:36;;;;;;;;;;;;;;;3.40;100.00;95184.50;10482232;28;2595;-70
2024/03/23 21:16:38;;;;;;;;;;;;;;;3.43;100.00;95178.69;10496278;28;2973;-70
2024/03/23 21:21:41;;;;;;;;;;;;;;;3.44;100.00;95172.34;10493712;28;2808;-70
2024/03/23 21:26:42;;;;;;;;;;;;;;;3.36;100.00;95172.75;10499703;28;2829;-70
2024/03/23 21:31:44;;;;;;;;;;;;;;;3.18;100.00;95168.47;10496439;28;2666;-69
2024/03/23 21:36:46;;;;;;;;;;;;;;;3.18;100.00;95168.47;10498507;28;2553;-69
2024/03/23 21:41:48;;;;;;;;;;;;;;;3.11;100.00;95173.94;10500975;28;2906;-70
2024/03/23 21:46:50;;;;;;;;;;;;;;;3.09;100.00;95168.09;10504138;28;2786;-70
2024/03/23 21:51:52;;;;;;;;;;;;;;;3.09;100.00;95175.25;10494374;28;2789;-69
2024/03/23 21:56:54;;;;;;;;;;;;;;;2.94;100.00;95178.47;10504175;28;2745;-70
2024/03/23 22:01:56;;;;;;;;;;;;;;;2.84;100.00;95183.59;10498072;28;2920;-73
2024/03/23 22:06:58;;;;;;;;;;;;;;;2.77;100.00;95190.91;10505494;28;2802;-70
2024/03/23 22:11:59;;;;;;;;;;;;;;;2.65;100.00;95191.75;10488609;28;2822;-70
2024/03/23 22:17:02;;;;;;;;;;;;;;;2.58;100.00;95171.72;10501175;28;2836;-70
2024/03/23 22:22:03;;;;;;;;;;;;;;;2.65;100.00;95181.13;10497221;28;2824;-70
2024/03/23 22:27:05;;;;;;;;;;;;;;;2.70;100.00;95173.28;10499783;28;2883;-70
2024/03/23 22:32:07;;;;;;;;;;;;;;;2.74;100.00;95178.94;10497079;28;2801;-69
2024/03/23 22:37:09;;;;;;;;;;;;;;;2.85;100.00;95163.97;10496192;28;2743;-69
2024/03/23 22:42:10;;;;;;;;;;;;;;;2.82;100.00;95165.25;10505747;28;2602;-70
2024/03/23 22:47:12;;;;;;;;;;;;;;;2.72;100.00;95159.75;10509201;28;3118;-70
2024/03/23 22:52:14;;;;;;;;;;;;;;;2.65;100.00;95159.91;10496676;28;2741;-70
2024/03/23 22:57:15;;;;;;;;;;;;;;;2.66;100.00;95144.78;10492750;28;2721;-70
2024/03/23 23:02:17;;;;;;;;;;;;;;;2.69;100.00;95139.81;10494345;28;2885;-69
2024/03/23 23:07:19;;;;;;;;;;;;;;;2.80;100.00;95147.94;10477691;28;2897;-69
2024/03/23 23:12:22;;;;;;;;;;;;;;;2.95;100.00;95142.91;10492867;28;2877;-70
2024/03/23 23:17:26;;;;;;;;;;;;;;;3.13;100.00;95137.34;10501525;28;2754;-69
2024/03/23 23:22:27;;;;;;;;;;;;;;;3.01;100.00;95133.97;10500252;28;2784;-69
2024/03/23 23:27:29;;;;;;;;;;;;;;;2.96;100.00;95124.06;10493838;28;2906;-69
2024/03/23 23:32:31;;;;;;;;;;;;;;;2.92;100.00;95117.63;10499635;28;2823;-69
2024/03/23 23:37:33;;;;;;;;;;;;;;;2.93;100.00;95118.47;10483294;28;2746;-69
2024/03/23 23:42:35;;;;;;;;;;;;;;;2.90;100.00;95113.63;10500244;28;2893;-69
2024/03/23 23:47:36;;;;;;;;;;;;;;;2.84;100.00;95099.44;10494118;28;2800;-71
2024/03/23 23:52:38;;;;;;;;;;;;;;;2.75;100.00;95089.50;10485196;28;2785;-69
2024/03/23 23:57:40;;;;;;;;;;;;;;;2.64;100.00;95084.00;10481599;28;2867;-70
